Terminal Aerodrome Forecast
Issued by NWS

Home | Current Version | Previous Version | Text Only | Print | Product List | Glossary On
Versions: 1 2 3 4 5 6 7 8 9 10 11 12 13
000
FTUS44 KJAN 270527
TAFGTR
TAF
KGTR 270527Z 2706/2806 14007KT P6SM SCT100
     FM270900 12008KT P6SM VCSH OVC050
     FM271100 10008KT 5SM SHRA BR VCTS BKN012CB OVC020
     FM271500 10008KT 6SM -SHRA BR BKN008 BKN030
     FM272100 13008KT P6SM SCT008 BKN015
     FM280000 14012KT 4SM BR BKN010=

USA.gov is the U.S. government's official web portal to all federal, state and local government web resources and services.